createdAt,value
2019-06-08T00:01:12.570Z,14.50
2019-06-08T00:03:42.019Z,14.40
2019-06-08T00:06:12.555Z,14.30
2019-06-08T00:08:42.022Z,14.30
2019-06-08T00:11:12.691Z,14.30
2019-06-08T00:13:42.108Z,14.20
2019-06-08T00:16:11.482Z,14.20
2019-06-08T00:18:40.823Z,14.10
2019-06-08T00:21:10.173Z,14.20
2019-06-08T00:23:39.538Z,14.20
2019-06-08T00:26:08.889Z,14.10
2019-06-08T00:28:38.237Z,14.10
2019-06-08T00:31:07.592Z,14.00
2019-06-08T00:33:36.950Z,14.00
2019-06-08T00:36:06.388Z,14.00
2019-06-08T00:38:35.757Z,14.00
2019-06-08T00:41:05.115Z,13.90
2019-06-08T00:43:34.450Z,13.90
2019-06-08T00:46:03.904Z,13.90
2019-06-08T00:48:33.251Z,13.90
2019-06-08T00:51:02.624Z,13.90
2019-06-08T00:53:31.905Z,13.90
2019-06-08T00:56:01.260Z,13.90
2019-06-08T00:58:30.623Z,13.90
2019-06-08T01:00:59.968Z,13.90
2019-06-08T01:03:30.036Z,14.00
2019-06-08T01:05:59.454Z,13.90
2019-06-08T01:08:29.325Z,13.90
2019-06-08T01:10:58.746Z,13.90
2019-06-08T01:13:28.991Z,13.90
2019-06-08T01:15:58.435Z,14.00
2019-06-08T01:18:27.772Z,13.90
2019-06-08T01:20:57.145Z,14.00
2019-06-08T01:23:27.789Z,14.00
2019-06-08T01:25:57.342Z,14.00
2019-06-08T01:28:28.014Z,14.10
2019-06-08T01:30:57.631Z,14.00
2019-06-08T01:33:26.987Z,13.90
2019-06-08T01:35:56.338Z,13.90
2019-06-08T01:38:25.694Z,14.00
2019-06-08T01:40:55.319Z,14.10
2019-06-08T01:43:25.821Z,14.10
2019-06-08T01:45:55.268Z,14.20
2019-06-08T01:48:24.653Z,14.20
2019-06-08T01:50:54.059Z,14.30
2019-06-08T01:53:24.607Z,14.30
2019-06-08T01:55:54.026Z,14.30
2019-06-08T01:58:23.435Z,14.30
2019-06-08T02:00:52.790Z,14.40
2019-06-08T02:03:22.326Z,14.50
2019-06-08T02:05:52.870Z,14.50
2019-06-08T02:08:22.276Z,14.60
2019-06-08T02:10:51.638Z,14.70
2019-06-08T02:13:20.982Z,14.70
2019-06-08T02:15:50.389Z,14.70
2019-06-08T02:18:35.386Z,14.70
2019-06-08T02:20:50.797Z,14.70
2019-06-08T02:23:20.209Z,14.60
2019-06-08T02:25:49.567Z,14.60
2019-06-08T02:28:18.983Z,14.60
2019-06-08T02:30:48.391Z,14.50
2019-06-08T02:33:17.763Z,14.50
2019-06-08T02:35:47.166Z,14.50
2019-06-08T02:38:16.614Z,14.50
2019-06-08T02:40:45.937Z,14.40
2019-06-08T02:43:15.356Z,14.50
2019-06-08T02:45:44.852Z,14.50
2019-06-08T02:48:14.188Z,14.50
2019-06-08T02:50:55.043Z,14.50
2019-06-08T02:53:29.056Z,14.40
2019-06-08T02:55:57.927Z,14.40
2019-06-08T02:58:29.078Z,14.30
2019-06-08T03:00:58.330Z,14.30
2019-06-08T03:03:29.623Z,14.30
2019-06-08T03:06:02.082Z,14.30
2019-06-08T03:08:36.146Z,14.20
2019-06-08T03:11:06.056Z,14.20
2019-06-08T03:13:36.156Z,14.30
2019-06-08T03:16:06.724Z,14.20
2019-06-08T03:18:38.158Z,14.20
2019-06-08T03:21:07.133Z,14.10
2019-06-08T03:23:38.597Z,14.10
2019-06-08T03:26:07.552Z,14.10
2019-06-08T03:28:37.725Z,14.10
2019-06-08T03:31:07.944Z,14.10
2019-06-08T03:33:42.892Z,14.20
2019-06-08T03:36:08.364Z,14.20
2019-06-08T03:38:37.765Z,14.30
2019-06-08T03:41:07.108Z,14.30
2019-06-08T03:43:37.602Z,14.30
2019-06-08T03:46:07.524Z,14.30
2019-06-08T03:48:37.282Z,14.50
2019-06-08T03:51:07.948Z,14.50
2019-06-08T03:53:37.962Z,14.50
2019-06-08T03:56:08.429Z,14.40
2019-06-08T03:58:38.513Z,14.40
2019-06-08T04:01:08.833Z,14.40
2019-06-08T04:03:39.831Z,14.40
2019-06-08T04:06:09.200Z,14.30
2019-06-08T04:08:40.204Z,14.30
2019-06-08T04:11:09.661Z,14.30
2019-06-08T04:13:39.904Z,14.30
2019-06-08T04:16:09.449Z,14.30
2019-06-08T04:18:40.259Z,14.40
2019-06-08T04:21:09.844Z,14.50
2019-06-08T04:23:40.448Z,14.60
2019-06-08T04:26:10.268Z,14.50
2019-06-08T04:28:40.570Z,14.50
2019-06-08T04:31:09.986Z,14.30
2019-06-08T04:33:40.355Z,14.50
2019-06-08T04:36:10.391Z,15.00
2019-06-08T04:38:41.228Z,15.00
2019-06-08T04:41:10.705Z,14.80
2019-06-08T04:43:42.630Z,14.70
2019-06-08T04:46:11.985Z,14.50
2019-06-08T04:48:42.837Z,14.50
2019-06-08T04:51:12.394Z,14.50
2019-06-08T04:53:43.183Z,14.60
2019-06-08T04:56:14.897Z,14.70
2019-06-08T04:58:46.844Z,14.80
2019-06-08T05:01:15.388Z,14.80
2019-06-08T05:03:45.477Z,14.90
2019-06-08T05:06:15.045Z,15.00
2019-06-08T05:08:45.265Z,14.90
2019-06-08T05:11:14.737Z,14.90
2019-06-08T05:13:45.349Z,15.00
2019-06-08T05:16:14.827Z,15.10
2019-06-08T05:18:45.278Z,15.20
2019-06-08T05:21:14.720Z,15.30
2019-06-08T05:23:45.453Z,15.50
2019-06-08T05:26:15.194Z,15.50
2019-06-08T05:28:45.258Z,15.30
2019-06-08T05:31:14.676Z,15.20
2019-06-08T05:33:45.465Z,15.30
2019-06-08T05:36:14.872Z,15.40
2019-06-08T05:38:45.611Z,15.40
2019-06-08T05:41:15.379Z,15.30
2019-06-08T05:43:45.604Z,15.30
2019-06-08T05:46:15.073Z,15.40
2019-06-08T05:48:45.815Z,15.70
2019-06-08T05:51:15.270Z,15.90
2019-06-08T05:53:45.758Z,15.80
2019-06-08T05:56:15.181Z,15.70
2019-06-08T05:58:44.540Z,15.60
2019-06-08T06:01:13.881Z,15.90
2019-06-08T06:03:44.449Z,15.90
2019-06-08T06:06:13.984Z,16.00
2019-06-08T06:08:44.440Z,16.10
2019-06-08T06:11:14.076Z,16.20
2019-06-08T06:13:43.416Z,16.10
2019-06-08T06:16:12.789Z,16.00
2019-06-08T06:18:42.917Z,16.20
2019-06-08T06:21:12.671Z,16.20
2019-06-08T06:23:43.158Z,16.10
2019-06-08T06:26:12.614Z,16.00
2019-06-08T06:28:43.249Z,16.20
2019-06-08T06:31:12.724Z,16.60
2019-06-08T06:33:42.139Z,16.70
2019-06-08T06:36:11.558Z,16.80
2019-06-08T06:38:41.907Z,16.70
2019-06-08T06:41:11.351Z,16.50
2019-06-08T06:43:42.123Z,16.60
2019-06-08T06:46:11.739Z,16.60
2019-06-08T06:48:42.034Z,16.10
2019-06-08T06:51:25.326Z,16.00
2019-06-08T06:53:42.836Z,16.00
2019-06-08T06:56:12.196Z,16.00
2019-06-08T06:58:42.983Z,16.10
2019-06-08T07:01:12.370Z,16.20
2019-06-08T07:03:41.737Z,16.10
2019-06-08T07:06:11.095Z,16.30
2019-06-08T07:08:42.057Z,16.60
2019-06-08T07:11:11.474Z,16.40
2019-06-08T07:13:40.836Z,16.60
2019-06-08T07:16:18.705Z,16.80
2019-06-08T07:18:41.273Z,16.80
2019-06-08T07:21:10.656Z,16.90
2019-06-08T07:23:40.063Z,17.30
2019-06-08T07:26:09.422Z,17.10
2019-06-08T07:28:38.769Z,16.80
2019-06-08T07:31:08.150Z,16.50
2019-06-08T07:33:37.520Z,16.60
2019-06-08T07:36:06.962Z,16.50
2019-06-08T07:38:36.471Z,16.30
2019-06-08T07:41:05.945Z,16.30
2019-06-08T07:43:35.403Z,16.20
2019-06-08T07:46:04.826Z,16.20
2019-06-08T07:48:34.264Z,16.30
2019-06-08T07:51:03.621Z,16.10
2019-06-08T07:53:33.021Z,16.20
2019-06-08T07:56:02.360Z,16.20
2019-06-08T07:58:31.793Z,16.30
2019-06-08T08:01:07.699Z,16.20
2019-06-08T08:03:32.213Z,16.00
2019-06-08T08:06:01.585Z,16.20
2019-06-08T08:08:30.870Z,16.30
2019-06-08T08:11:00.606Z,16.60
2019-06-08T08:13:30.039Z,16.60
2019-06-08T08:16:00.737Z,16.60
2019-06-08T08:18:30.336Z,16.30
2019-06-08T08:21:09.299Z,16.10
2019-06-08T08:23:30.927Z,16.20
2019-06-08T08:26:01.751Z,16.20
2019-06-08T08:28:31.441Z,16.10
2019-06-08T08:31:01.896Z,16.00
2019-06-08T08:33:31.470Z,16.10
2019-06-08T08:36:01.898Z,16.00
2019-06-08T08:38:31.560Z,16.20
2019-06-08T08:41:07.112Z,15.90
2019-06-08T08:43:31.898Z,15.90
2019-06-08T08:46:01.973Z,16.10
2019-06-08T08:48:31.824Z,16.20
2019-06-08T08:51:03.531Z,16.20
2019-06-08T08:53:32.284Z,16.10
2019-06-08T08:56:02.549Z,16.20
2019-06-08T08:58:32.080Z,16.20
2019-06-08T09:01:03.646Z,16.30
2019-06-08T09:03:33.655Z,16.30
2019-06-08T09:06:03.970Z,16.40
2019-06-08T09:08:33.680Z,16.70
2019-06-08T09:11:03.814Z,16.90
2019-06-08T09:13:33.490Z,17.00
2019-06-08T09:16:04.236Z,17.10
2019-06-08T09:18:33.948Z,17.20
2019-06-08T09:21:04.287Z,17.30
2019-06-08T09:23:33.950Z,17.30
2019-06-08T09:26:09.017Z,17.30
2019-06-08T09:28:34.474Z,17.20
2019-06-08T09:31:04.206Z,17.10
2019-06-08T09:33:33.607Z,17.20
2019-06-08T09:36:04.915Z,17.30
2019-06-08T09:38:34.145Z,17.20
2019-06-08T09:41:05.221Z,17.20
2019-06-08T09:43:34.655Z,17.00
2019-06-08T09:46:05.327Z,17.00
2019-06-08T09:48:35.012Z,17.00
2019-06-08T09:51:05.846Z,17.00
2019-06-08T09:53:40.546Z,17.00
2019-06-08T09:56:09.607Z,17.10
2019-06-08T09:58:39.055Z,17.10
2019-06-08T10:01:11.576Z,17.30
2019-06-08T10:03:39.799Z,17.50
2019-06-08T10:06:12.171Z,17.90
2019-06-08T10:08:40.214Z,18.00
2019-06-08T10:11:09.850Z,17.70
2019-06-08T10:13:43.047Z,17.70
2019-06-08T10:16:10.897Z,17.70
2019-06-08T10:18:40.445Z,17.80
2019-06-08T10:21:10.006Z,17.80
2019-06-08T10:23:41.552Z,18.20
2019-06-08T10:26:11.144Z,18.30
2019-06-08T10:28:40.505Z,18.80
2019-06-08T10:31:09.995Z,19.50
2019-06-08T10:33:40.744Z,19.70
2019-06-08T10:36:12.890Z,20.30
2019-06-08T10:38:42.173Z,20.40
2019-06-08T10:41:17.657Z,19.80
2019-06-08T10:43:42.682Z,19.50
2019-06-08T10:46:16.539Z,18.90
2019-06-08T10:48:43.128Z,19.30
2019-06-08T10:51:13.113Z,19.80
2019-06-08T10:53:49.204Z,19.70
2019-06-08T10:56:13.784Z,19.80
2019-06-08T10:58:43.187Z,19.40
2019-06-08T11:01:13.460Z,19.20
2019-06-08T11:03:43.109Z,19.40
2019-06-08T11:06:13.302Z,19.80
2019-06-08T11:08:42.896Z,20.60
2019-06-08T11:11:12.433Z,20.80
2019-06-08T11:13:41.975Z,20.20
2019-06-08T11:16:13.536Z,19.80
2019-06-08T11:18:42.463Z,19.90
2019-06-08T11:21:12.835Z,20.40
2019-06-08T11:23:42.574Z,20.80
2019-06-08T11:26:19.839Z,20.20
2019-06-08T11:28:43.168Z,20.00
2019-06-08T11:31:15.941Z,19.90
2019-06-08T11:33:43.644Z,19.60
2019-06-08T11:36:14.836Z,19.70
2019-06-08T11:38:44.107Z,20.10
2019-06-08T11:41:14.012Z,20.10
2019-06-08T11:43:43.439Z,20.20
2019-06-08T11:46:12.814Z,20.20
2019-06-08T11:48:42.333Z,20.70
2019-06-08T11:51:13.137Z,20.80
2019-06-08T11:53:42.693Z,21.00
2019-06-08T11:56:13.586Z,20.80
2019-06-08T11:58:43.213Z,21.20
2019-06-08T12:01:14.716Z,21.70
2019-06-08T12:03:43.672Z,22.60
2019-06-08T12:06:14.444Z,22.10
2019-06-08T12:08:44.064Z,21.80
2019-06-08T12:11:18.835Z,22.00
2019-06-08T12:13:44.633Z,22.20
2019-06-08T12:16:18.063Z,21.50
2019-06-08T12:18:45.075Z,21.10
2019-06-08T12:21:14.707Z,20.40
2019-06-08T12:23:44.048Z,20.30
2019-06-08T12:26:14.545Z,21.00
2019-06-08T12:28:44.034Z,21.90
2019-06-08T12:31:17.709Z,22.10
2019-06-08T12:33:44.525Z,22.70
2019-06-08T12:36:15.677Z,23.30
2019-06-08T12:38:45.018Z,22.50
2019-06-08T12:41:15.736Z,22.40
2019-06-08T12:43:47.856Z,23.90
2019-06-08T12:46:19.099Z,25.30
2019-06-08T12:48:47.514Z,25.90
2019-06-08T12:51:19.413Z,24.90
2019-06-08T12:53:49.595Z,24.40
2019-06-08T12:56:23.823Z,23.50
2019-06-08T12:58:50.029Z,22.50
2019-06-08T13:01:19.485Z,21.90
2019-06-08T13:03:50.455Z,20.70
2019-06-08T13:06:20.070Z,21.10
2019-06-08T13:08:49.474Z,22.00
2019-06-08T13:11:21.098Z,23.40
2019-06-08T13:13:50.032Z,24.20
2019-06-08T13:16:23.853Z,24.40
2019-06-08T13:18:50.528Z,24.20
2019-06-08T13:21:31.984Z,24.20
2019-06-08T13:23:50.952Z,23.80
2019-06-08T13:26:27.608Z,24.80
2019-06-08T13:28:51.365Z,26.00
2019-06-08T13:31:24.124Z,24.50
2019-06-08T13:33:51.883Z,24.10
2019-06-08T13:36:26.055Z,24.80
2019-06-08T13:38:52.282Z,24.40
2019-06-08T13:41:26.046Z,24.80
2019-06-08T13:43:52.723Z,24.40
2019-06-08T13:46:23.585Z,24.80
2019-06-08T13:48:53.125Z,24.70
2019-06-08T13:51:23.081Z,26.00
2019-06-08T13:53:53.520Z,25.00
2019-06-08T13:56:24.040Z,23.80
2019-06-08T13:58:53.544Z,22.90
2019-06-08T14:01:23.770Z,22.30
2019-06-08T14:03:53.838Z,22.40
2019-06-08T14:06:23.737Z,22.80
2019-06-08T14:08:54.226Z,24.00
2019-06-08T14:11:25.053Z,23.60
2019-06-08T14:13:54.804Z,23.00
2019-06-08T14:16:25.478Z,22.90
2019-06-08T14:18:55.399Z,22.70
2019-06-08T14:21:34.171Z,22.70
2019-06-08T14:23:55.858Z,23.60
2019-06-08T14:26:26.009Z,25.50
2019-06-08T14:28:55.433Z,24.80
2019-06-08T14:31:25.625Z,23.80
2019-06-08T14:33:55.841Z,23.10
2019-06-08T14:36:26.650Z,23.50
2019-06-08T14:39:02.043Z,24.40
2019-06-08T14:41:31.176Z,23.90
2019-06-08T14:43:58.678Z,23.80
2019-06-08T14:46:28.768Z,23.50
2019-06-08T14:48:58.691Z,23.50
2019-06-08T14:51:47.771Z,23.50
2019-06-08T14:54:22.462Z,23.90
2019-06-08T14:56:48.933Z,23.50
2019-06-08T14:59:20.067Z,23.80
2019-06-08T15:01:49.505Z,23.80
2019-06-08T15:04:23.184Z,22.70
2019-06-08T15:06:49.932Z,22.70
2019-06-08T15:09:19.485Z,22.80
2019-06-08T15:11:48.938Z,22.90
2019-06-08T15:14:19.381Z,23.50
2019-06-08T15:16:49.510Z,24.10
2019-06-08T15:19:20.108Z,24.70
2019-06-08T15:21:49.658Z,24.30
2019-06-08T15:24:19.033Z,23.50
2019-06-08T15:26:48.920Z,22.80
2019-06-08T15:29:18.539Z,22.70
2019-06-08T15:31:48.440Z,23.60
2019-06-08T15:34:18.200Z,26.00
2019-06-08T15:36:47.819Z,28.30
2019-06-08T15:39:17.999Z,29.00
2019-06-08T15:41:48.735Z,28.80
2019-06-08T15:44:21.353Z,28.40
2019-06-08T15:46:50.059Z,28.70
2019-06-08T15:49:20.062Z,28.30
2019-06-08T15:51:49.435Z,26.90
2019-06-08T15:54:19.435Z,27.50
2019-06-08T15:56:52.336Z,28.60
2019-06-08T15:59:23.163Z,28.30
2019-06-08T16:01:52.654Z,27.80
2019-06-08T16:04:23.345Z,28.00
2019-06-08T16:06:53.342Z,28.60
2019-06-08T16:09:23.996Z,30.20
2019-06-08T16:11:55.667Z,29.40
2019-06-08T16:14:26.641Z,29.40
2019-06-08T16:16:56.118Z,27.70
2019-06-08T16:19:25.497Z,28.10
2019-06-08T16:21:55.401Z,28.20
2019-06-08T16:24:25.767Z,29.20
2019-06-08T16:26:55.165Z,28.50
2019-06-08T16:29:24.547Z,27.40
2019-06-08T16:31:53.906Z,26.90
2019-06-08T16:34:23.297Z,26.10
2019-06-08T16:36:52.765Z,26.60
2019-06-08T16:39:22.218Z,28.10
2019-06-08T16:41:52.188Z,29.90
2019-06-08T16:44:22.131Z,31.50
2019-06-08T16:46:52.066Z,32.40
2019-06-08T16:49:22.012Z,32.80
2019-06-08T16:51:52.334Z,32.60
2019-06-08T16:54:22.283Z,32.50
2019-06-08T16:57:08.634Z,32.30
2019-06-08T16:59:23.859Z,32.20
2019-06-08T17:01:53.768Z,32.30
2019-06-08T17:04:24.613Z,31.80
2019-06-08T17:06:56.152Z,32.30
2019-06-08T17:09:26.091Z,32.00
2019-06-08T17:11:56.048Z,29.60
2019-06-08T17:14:25.514Z,28.20
2019-06-08T17:16:55.517Z,26.60
2019-06-08T17:19:26.485Z,25.60
2019-06-08T17:21:55.875Z,25.20
2019-06-08T17:24:25.243Z,24.80
2019-06-08T17:26:54.594Z,24.90
2019-06-08T17:29:23.967Z,25.60
2019-06-08T17:31:53.314Z,25.10
2019-06-08T17:34:22.683Z,24.40
2019-06-08T17:36:52.030Z,23.80
2019-06-08T17:39:21.391Z,23.30
2019-06-08T17:41:51.124Z,22.60
2019-06-08T17:44:20.494Z,22.30
2019-06-08T17:46:49.926Z,21.90
2019-06-08T17:49:19.237Z,21.60
2019-06-08T17:51:48.673Z,21.60
2019-06-08T17:54:18.007Z,21.30
2019-06-08T17:56:47.471Z,21.20
2019-06-08T17:59:16.851Z,21.10
2019-06-08T18:01:46.207Z,20.90
2019-06-08T18:04:17.469Z,20.80
2019-06-08T18:06:47.322Z,20.80
2019-06-08T18:09:17.535Z,20.90
2019-06-08T18:11:48.039Z,20.90
2019-06-08T18:14:18.174Z,21.00
2019-06-08T18:16:48.074Z,21.20
2019-06-08T18:19:29.371Z,21.10
2019-06-08T18:22:04.611Z,21.20
2019-06-08T18:24:30.147Z,21.30
2019-06-08T18:27:01.126Z,21.40
2019-06-08T18:29:30.470Z,21.40
2019-06-08T18:31:59.905Z,21.50
2019-06-08T18:34:29.352Z,21.40
2019-06-08T18:36:58.709Z,21.30
2019-06-08T18:39:29.792Z,21.10
2019-06-08T18:41:59.235Z,20.90
2019-06-08T18:44:29.224Z,20.90
2019-06-08T18:46:58.644Z,20.80
2019-06-08T18:49:28.809Z,20.70
2019-06-08T18:51:58.479Z,20.60
2019-06-08T18:54:28.172Z,20.40
2019-06-08T18:56:57.690Z,20.20
2019-06-08T18:59:28.560Z,20.00
2019-06-08T19:01:58.257Z,19.90
2019-06-08T19:04:30.717Z,19.60
2019-06-08T19:07:01.476Z,19.50
2019-06-08T19:09:32.145Z,19.40
2019-06-08T19:12:01.618Z,19.30
2019-06-08T19:14:31.016Z,19.20
2019-06-08T19:17:00.359Z,19.10
2019-06-08T19:19:31.530Z,19.00
2019-06-08T19:22:00.789Z,18.80
2019-06-08T19:24:30.153Z,18.70
2019-06-08T19:26:59.580Z,18.60
2019-06-08T19:29:29.024Z,18.50
2019-06-08T19:32:00.594Z,18.40
2019-06-08T19:34:33.173Z,18.30
2019-06-08T19:37:00.476Z,18.20
2019-06-08T19:39:29.866Z,18.20
2019-06-08T19:41:59.866Z,18.00
2019-06-08T19:44:29.741Z,17.80
2019-06-08T19:46:59.083Z,17.80
2019-06-08T19:49:28.503Z,17.70
2019-06-08T19:51:58.232Z,17.70
2019-06-08T19:54:27.732Z,17.60
2019-06-08T19:56:57.631Z,17.60
2019-06-08T19:59:27.557Z,17.60
2019-06-08T20:01:59.586Z,17.50
2019-06-08T20:04:28.109Z,17.50
2019-06-08T20:07:00.487Z,17.40
2019-06-08T20:09:28.585Z,17.30
2019-06-08T20:12:00.272Z,17.30
2019-06-08T20:14:28.995Z,17.30
2019-06-08T20:16:58.368Z,17.10
2019-06-08T20:19:28.021Z,17.00
2019-06-08T20:21:58.371Z,16.90
2019-06-08T20:24:28.164Z,16.90
2019-06-08T20:26:57.716Z,16.80
2019-06-08T20:29:28.188Z,16.60
2019-06-08T20:31:58.450Z,16.50
2019-06-08T20:34:28.013Z,16.50
2019-06-08T20:37:01.168Z,16.50
2019-06-08T20:39:28.578Z,16.30
2019-06-08T20:41:58.636Z,16.10
2019-06-08T20:44:30.245Z,16.10
2019-06-08T20:46:59.249Z,16.00
2019-06-08T20:49:28.625Z,16.00
2019-06-08T20:52:00.314Z,16.00
2019-06-08T20:54:29.026Z,16.00
2019-06-08T20:56:58.370Z,15.80
2019-06-08T20:59:33.139Z,15.60
2019-06-08T21:01:59.179Z,15.60
2019-06-08T21:04:28.662Z,15.60
2019-06-08T21:06:58.131Z,15.70
2019-06-08T21:09:27.980Z,15.70
2019-06-08T21:11:58.742Z,15.40
2019-06-08T21:14:28.339Z,15.20
2019-06-08T21:16:58.594Z,15.00
2019-06-08T21:19:28.311Z,15.10
2019-06-08T21:21:59.333Z,15.10
2019-06-08T21:24:28.999Z,15.20
2019-06-08T21:27:00.751Z,15.20
2019-06-08T21:29:47.125Z,15.20
2019-06-08T21:32:02.595Z,15.20
2019-06-08T21:34:31.641Z,15.30
2019-06-08T21:37:01.138Z,15.30
2019-06-08T21:39:30.511Z,15.30
2019-06-08T21:42:03.049Z,15.30
2019-06-08T21:44:30.907Z,15.20
2019-06-08T21:47:01.546Z,15.20
2019-06-08T21:49:31.220Z,15.20
2019-06-08T21:52:01.270Z,15.20
2019-06-08T21:54:30.858Z,15.10
2019-06-08T21:57:01.143Z,15.10
2019-06-08T21:59:30.645Z,15.00
2019-06-08T22:02:02.633Z,15.00
2019-06-08T22:04:31.061Z,15.00
2019-06-08T22:07:01.590Z,15.10
2019-06-08T22:09:31.485Z,15.10
2019-06-08T22:12:01.053Z,15.00
2019-06-08T22:14:30.513Z,14.90
2019-06-08T22:17:01.459Z,14.90
2019-06-08T22:19:31.039Z,14.80
2019-06-08T22:22:02.008Z,14.70
2019-06-08T22:24:31.580Z,14.60
2019-06-08T22:27:01.934Z,14.50
2019-06-08T22:29:31.294Z,14.40
2019-06-08T22:32:00.678Z,14.40
2019-06-08T22:34:30.025Z,14.30
2019-06-08T22:37:00.447Z,14.40
2019-06-08T22:39:29.927Z,14.40
2019-06-08T22:42:01.249Z,14.30
2019-06-08T22:44:30.344Z,14.20
2019-06-08T22:47:01.578Z,14.00
2019-06-08T22:49:30.749Z,13.80
2019-06-08T22:52:01.379Z,13.90
2019-06-08T22:54:31.096Z,13.80
2019-06-08T22:57:02.961Z,13.80
2019-06-08T22:59:31.505Z,13.80
2019-06-08T23:02:03.723Z,13.70
2019-06-08T23:04:31.846Z,13.60
2019-06-08T23:07:04.391Z,13.50
2019-06-08T23:09:32.305Z,13.50
2019-06-08T23:12:04.326Z,13.50
2019-06-08T23:14:32.757Z,13.50
2019-06-08T23:17:03.818Z,13.50
2019-06-08T23:19:33.363Z,13.50
2019-06-08T23:22:03.941Z,13.50
2019-06-08T23:24:33.471Z,13.50
2019-06-08T23:27:04.141Z,13.60
2019-06-08T23:29:33.552Z,13.50
2019-06-08T23:32:04.547Z,13.50
2019-06-08T23:34:33.980Z,13.40
2019-06-08T23:37:06.619Z,13.30
2019-06-08T23:39:34.473Z,13.40
2019-06-08T23:42:03.908Z,13.40
2019-06-08T23:44:33.251Z,13.40
2019-06-08T23:47:03.193Z,13.30
2019-06-08T23:49:33.761Z,13.30
2019-06-08T23:52:04.283Z,13.30
2019-06-08T23:54:34.216Z,13.40
2019-06-08T23:57:04.804Z,13.50
2019-06-08T23:59:34.337Z,13.50
